Lingwood, United Kingdom
Current Conditions -  °F | °C
As of 8:50 AM on Friday 28 Nov 2014 (Local Time) from EGSD Reporting Station
Haze Haze  
Wind Chill: 52°   Ceiling: 700
Heat Index: 52°   Visibility: 2.8mi
Dew Point: 50°   Wind: 14mph
Humidity: 94%   Direction: 100°E
Pressure: 29.68"   Gusts: NA
Location:  52.62°N, 1.49°E
Report Text: EGSD 280850Z 10012KT 4500 BR FEW005 BKN007 11/10 Q1005
Loading
Personal Weather Stations






























Interactive Weather Map New forecast layout! Learn more

10-Day Weather Forecast

Advertisements
Track Severe Weather on mobile